sensor_id;sensor_type;location;lat;lon;timestamp;pressure;altitude;pressure_sealevel;temperature;humidity
8890;BME280;4481;43.406;24.454;2022-11-20T00:00:12;76860.84;;;-144.09;100.00
8890;BME280;4481;43.406;24.454;2022-11-20T00:02:39;76848.31;;;-144.09;100.00
8890;BME280;4481;43.406;24.454;2022-11-20T00:05:06;76856.66;;;-144.09;100.00
8890;BME280;4481;43.406;24.454;2022-11-20T00:07:32;76850.41;;;-144.09;100.00
8890;BME280;4481;43.406;24.454;2022-11-20T00:09:58;76854.56;;;-144.09;100.00
8890;BME280;4481;43.406;24.454;2022-11-20T00:12:25;76871.28;;;-144.09;100.00
8890;BME280;4481;43.406;24.454;2022-11-20T00:14:51;76844.13;;;-144.09;100.00
8890;BME280;4481;43.406;24.454;2022-11-20T00:17:17;76825.31;;;-144.09;100.00
8890;BME280;4481;43.406;24.454;2022-11-20T00:19:44;76819.06;;;-144.09;100.00
8890;BME280;4481;43.406;24.454;2022-11-20T00:22:10;76842.03;;;-144.09;100.00
8890;BME280;4481;43.406;24.454;2022-11-20T00:24:37;76827.41;;;-144.09;100.00
8890;BME280;4481;43.406;24.454;2022-11-20T00:27:03;76819.06;;;-144.09;100.00
8890;BME280;4481;43.406;24.454;2022-11-20T00:29:29;76831.59;;;-144.09;100.00
8890;BME280;4481;43.406;24.454;2022-11-20T00:31:55;76833.69;;;-144.09;100.00
8890;BME280;4481;43.406;24.454;2022-11-20T00:34:21;76806.50;;;-144.09;100.00
8890;BME280;4481;43.406;24.454;2022-11-20T00:36:48;76802.34;;;-144.09;100.00
8890;BME280;4481;43.406;24.454;2022-11-20T00:39:14;76825.31;;;-144.09;100.00
8890;BME280;4481;43.406;24.454;2022-11-20T00:41:41;76821.13;;;-144.09;100.00
8890;BME280;4481;43.406;24.454;2022-11-20T00:44:07;76821.13;;;-144.09;100.00
8890;BME280;4481;43.406;24.454;2022-11-20T00:46:33;76821.13;;;-144.09;100.00
8890;BME280;4481;43.406;24.454;2022-11-20T00:48:59;76808.59;;;-144.09;100.00
8890;BME280;4481;43.406;24.454;2022-11-20T00:51:27;76833.69;;;-144.09;100.00
8890;BME280;4481;43.406;24.454;2022-11-20T00:53:55;76831.59;;;-144.09;100.00
8890;BME280;4481;43.406;24.454;2022-11-20T00:56:22;76848.31;;;-144.09;100.00
8890;BME280;4481;43.406;24.454;2022-11-20T00:58:48;76842.03;;;-144.09;100.00
8890;BME280;4481;43.406;24.454;2022-11-20T01:01:17;76819.06;;;-144.09;100.00
8890;BME280;4481;43.406;24.454;2022-11-20T01:03:45;76831.59;;;-144.09;100.00
8890;BME280;4481;43.406;24.454;2022-11-20T01:06:13;76844.13;;;-144.09;100.00
8890;BME280;4481;43.406;24.454;2022-11-20T01:08:40;76831.59;;;-144.09;100.00
8890;BME280;4481;43.406;24.454;2022-11-20T01:11:10;76823.22;;;-144.09;100.00
8890;BME280;4481;43.406;24.454;2022-11-20T01:13:36;76816.97;;;-144.09;100.00
8890;BME280;4481;43.406;24.454;2022-11-20T01:16:03;76789.78;;;-144.09;100.00
8890;BME280;4481;43.406;24.454;2022-11-20T01:18:30;76825.31;;;-144.09;100.00
8890;BME280;4481;43.406;24.454;2022-11-20T01:21:00;76892.19;;;-144.09;100.00
8890;BME280;4481;43.406;24.454;2022-11-20T01:23:30;76873.38;;;-144.09;100.00
8890;BME280;4481;43.406;24.454;2022-11-20T01:25:56;76871.28;;;-144.09;100.00
8890;BME280;4481;43.406;24.454;2022-11-20T01:28:23;76852.47;;;-144.09;100.00
8890;BME280;4481;43.406;24.454;2022-11-20T01:30:49;76883.84;;;-144.09;100.00
8890;BME280;4481;43.406;24.454;2022-11-20T01:33:15;76871.28;;;-144.09;100.00
8890;BME280;4481;43.406;24.454;2022-11-20T01:35:41;76856.66;;;-144.09;100.00
8890;BME280;4481;43.406;24.454;2022-11-20T01:38:08;76839.94;;;-144.09;100.00
8890;BME280;4481;43.406;24.454;2022-11-20T01:40:34;76856.66;;;-144.09;100.00
8890;BME280;4481;43.406;24.454;2022-11-20T01:43:11;76879.66;;;-144.09;100.00
8890;BME280;4481;43.406;24.454;2022-11-20T01:46:00;76879.66;;;-144.09;100.00
8890;BME280;4481;43.406;24.454;2022-11-20T01:48:32;76854.56;;;-144.09;100.00
8890;BME280;4481;43.406;24.454;2022-11-20T01:50:59;76842.03;;;-144.09;100.00
8890;BME280;4481;43.406;24.454;2022-11-20T01:53:31;76839.94;;;-144.09;100.00
8890;BME280;4481;43.406;24.454;2022-11-20T01:56:00;76837.84;;;-144.09;100.00
8890;BME280;4481;43.406;24.454;2022-11-20T01:58:30;76837.84;;;-144.09;100.00
8890;BME280;4481;43.406;24.454;2022-11-20T02:00:58;76858.75;;;-144.09;100.00
8890;BME280;4481;43.406;24.454;2022-11-20T02:03:24;76848.31;;;-144.09;100.00
8890;BME280;4481;43.406;24.454;2022-11-20T02:05:55;76844.13;;;-144.09;100.00
8890;BME280;4481;43.406;24.454;2022-11-20T02:08:23;76885.91;;;-144.09;100.00
8890;BME280;4481;43.406;24.454;2022-11-20T02:10:50;76875.47;;;-144.09;100.00
8890;BME280;4481;43.406;24.454;2022-11-20T02:13:16;76860.84;;;-144.09;100.00
8890;BME280;4481;43.406;24.454;2022-11-20T02:16:01;76879.66;;;-144.09;100.00
8890;BME280;4481;43.406;24.454;2022-11-20T02:18:28;76869.19;;;-144.09;100.00
8890;BME280;4481;43.406;24.454;2022-11-20T02:20:58;76835.78;;;-144.09;100.00
8890;BME280;4481;43.406;24.454;2022-11-20T02:23:32;76842.03;;;-144.09;100.00
8890;BME280;4481;43.406;24.454;2022-11-20T02:26:01;76839.94;;;-144.09;100.00
8890;BME280;4481;43.406;24.454;2022-11-20T02:28:28;76825.31;;;-144.09;100.00
8890;BME280;4481;43.406;24.454;2022-11-20T02:30:54;76825.31;;;-144.09;100.00
8890;BME280;4481;43.406;24.454;2022-11-20T02:33:20;76833.69;;;-144.09;100.00
8890;BME280;4481;43.406;24.454;2022-11-20T02:35:47;76852.47;;;-144.09;100.00
8890;BME280;4481;43.406;24.454;2022-11-20T02:38:13;76850.41;;;-144.09;100.00
8890;BME280;4481;43.406;24.454;2022-11-20T02:40:40;76858.75;;;-144.09;100.00
8890;BME280;4481;43.406;24.454;2022-11-20T02:43:08;76867.13;;;-144.09;100.00
8890;BME280;4481;43.406;24.454;2022-11-20T02:45:34;76873.38;;;-144.09;100.00
8890;BME280;4481;43.406;24.454;2022-11-20T02:48:01;76892.19;;;-144.09;100.00
8890;BME280;4481;43.406;24.454;2022-11-20T02:50:27;76885.91;;;-144.09;100.00
8890;BME280;4481;43.406;24.454;2022-11-20T02:52:53;76911.00;;;-144.09;100.00
8890;BME280;4481;43.406;24.454;2022-11-20T02:55:19;76898.47;;;-144.09;100.00
8890;BME280;4481;43.406;24.454;2022-11-20T02:57:45;76904.72;;;-144.09;100.00
8890;BME280;4481;43.406;24.454;2022-11-20T03:00:13;76908.91;;;-144.09;100.00
8890;BME280;4481;43.406;24.454;2022-11-20T03:02:40;76896.38;;;-144.09;100.00
8890;BME280;4481;43.406;24.454;2022-11-20T03:05:06;76915.19;;;-144.09;100.00
8890;BME280;4481;43.406;24.454;2022-11-20T03:07:33;76902.63;;;-144.09;100.00
8890;BME280;4481;43.406;24.454;2022-11-20T03:09:59;76885.91;;;-144.09;100.00
8890;BME280;4481;43.406;24.454;2022-11-20T03:12:25;76877.56;;;-144.09;100.00
8890;BME280;4481;43.406;24.454;2022-11-20T03:14:52;76877.56;;;-144.09;100.00
8890;BME280;4481;43.406;24.454;2022-11-20T03:17:19;76877.56;;;-144.09;100.00
8890;BME280;4481;43.406;24.454;2022-11-20T03:19:45;76898.47;;;-144.09;100.00
8890;BME280;4481;43.406;24.454;2022-11-20T03:22:11;76919.34;;;-144.09;100.00
8890;BME280;4481;43.406;24.454;2022-11-20T03:24:37;76911.00;;;-144.09;100.00
8890;BME280;4481;43.406;24.454;2022-11-20T03:27:03;76902.63;;;-144.09;100.00
8890;BME280;4481;43.406;24.454;2022-11-20T03:29:29;76904.72;;;-144.09;100.00
8890;BME280;4481;43.406;24.454;2022-11-20T03:31:56;76900.56;;;-144.09;100.00
8890;BME280;4481;43.406;24.454;2022-11-20T03:34:23;76881.75;;;-144.09;100.00
8890;BME280;4481;43.406;24.454;2022-11-20T03:36:49;76890.09;;;-144.09;100.00
8890;BME280;4481;43.406;24.454;2022-11-20T03:39:15;76869.19;;;-144.09;100.00
8890;BME280;4481;43.406;24.454;2022-11-20T03:41:41;76852.47;;;-144.09;100.00
8890;BME280;4481;43.406;24.454;2022-11-20T03:44:10;76842.03;;;-144.09;100.00
8890;BME280;4481;43.406;24.454;2022-11-20T03:46:36;76835.78;;;-144.09;100.00
8890;BME280;4481;43.406;24.454;2022-11-20T03:49:03;76829.50;;;-144.09;100.00
8890;BME280;4481;43.406;24.454;2022-11-20T03:51:31;76827.41;;;-144.09;100.00
8890;BME280;4481;43.406;24.454;2022-11-20T03:54:02;76808.59;;;-144.09;100.00
8890;BME280;4481;43.406;24.454;2022-11-20T03:56:31;76816.97;;;-144.09;100.00
8890;BME280;4481;43.406;24.454;2022-11-20T03:58:58;76823.22;;;-144.09;100.00
8890;BME280;4481;43.406;24.454;2022-11-20T04:01:26;76835.78;;;-144.09;100.00
8890;BME280;4481;43.406;24.454;2022-11-20T04:03:53;76837.84;;;-144.09;100.00
8890;BME280;4481;43.406;24.454;2022-11-20T04:06:21;76827.41;;;-144.09;100.00
8890;BME280;4481;43.406;24.454;2022-11-20T04:08:49;76823.22;;;-144.09;100.00
8890;BME280;4481;43.406;24.454;2022-11-20T04:11:17;76827.41;;;-144.09;100.00
8890;BME280;4481;43.406;24.454;2022-11-20T04:13:46;76825.31;;;-144.09;100.00
8890;BME280;4481;43.406;24.454;2022-11-20T04:16:14;76827.41;;;-144.09;100.00
8890;BME280;4481;43.406;24.454;2022-11-20T04:18:41;76833.69;;;-144.09;100.00
8890;BME280;4481;43.406;24.454;2022-11-20T04:21:07;76839.94;;;-144.09;100.00
8890;BME280;4481;43.406;24.454;2022-11-20T04:23:33;76823.22;;;-144.09;100.00
8890;BME280;4481;43.406;24.454;2022-11-20T04:26:05;76810.69;;;-144.09;100.00
8890;BME280;4481;43.406;24.454;2022-11-20T04:28:31;76802.34;;;-144.09;100.00
8890;BME280;4481;43.406;24.454;2022-11-20T04:31:05;76793.97;;;-144.09;100.00
8890;BME280;4481;43.406;24.454;2022-11-20T04:33:32;76796.06;;;-144.09;100.00
8890;BME280;4481;43.406;24.454;2022-11-20T04:36:01;76827.41;;;-144.09;100.00
8890;BME280;4481;43.406;24.454;2022-11-20T04:38:27;76808.59;;;-144.09;100.00
8890;BME280;4481;43.406;24.454;2022-11-20T04:40:56;76806.50;;;-144.09;100.00
8890;BME280;4481;43.406;24.454;2022-11-20T04:43:23;76819.06;;;-144.09;100.00
8890;BME280;4481;43.406;24.454;2022-11-20T04:45:50;76833.69;;;-144.09;100.00
8890;BME280;4481;43.406;24.454;2022-11-20T04:48:16;76854.56;;;-144.09;100.00
8890;BME280;4481;43.406;24.454;2022-11-20T04:50:42;76873.38;;;-144.09;100.00
8890;BME280;4481;43.406;24.454;2022-11-20T04:53:09;76854.56;;;-144.09;100.00
8890;BME280;4481;43.406;24.454;2022-11-20T04:55:35;76862.94;;;-144.09;100.00
8890;BME280;4481;43.406;24.454;2022-11-20T04:58:01;76881.75;;;-144.09;100.00
8890;BME280;4481;43.406;24.454;2022-11-20T05:00:28;76867.13;;;-144.09;100.00
8890;BME280;4481;43.406;24.454;2022-11-20T05:02:54;76885.91;;;-144.09;100.00
8890;BME280;4481;43.406;24.454;2022-11-20T05:05:20;76894.28;;;-144.09;100.00
8890;BME280;4481;43.406;24.454;2022-11-20T05:07:46;76890.09;;;-144.09;100.00
8890;BME280;4481;43.406;24.454;2022-11-20T05:10:13;76888.00;;;-144.09;100.00
8890;BME280;4481;43.406;24.454;2022-11-20T05:12:39;76900.56;;;-144.09;100.00
8890;BME280;4481;43.406;24.454;2022-11-20T05:15:06;76921.44;;;-144.09;100.00
8890;BME280;4481;43.406;24.454;2022-11-20T05:17:33;76927.72;;;-144.09;100.00
8890;BME280;4481;43.406;24.454;2022-11-20T05:19:59;76938.16;;;-144.09;100.00
8890;BME280;4481;43.406;24.454;2022-11-20T05:22:25;76954.88;;;-144.09;100.00
8890;BME280;4481;43.406;24.454;2022-11-20T05:24:51;76956.97;;;-144.09;100.00
8890;BME280;4481;43.406;24.454;2022-11-20T05:27:18;76954.88;;;-144.09;100.00
8890;BME280;4481;43.406;24.454;2022-11-20T05:29:44;76963.25;;;-144.09;100.00
8890;BME280;4481;43.406;24.454;2022-11-20T05:32:10;76979.97;;;-144.09;100.00
8890;BME280;4481;43.406;24.454;2022-11-20T05:34:37;76994.59;;;-144.09;100.00
8890;BME280;4481;43.406;24.454;2022-11-20T05:37:03;76975.78;;;-144.09;100.00
8890;BME280;4481;43.406;24.454;2022-11-20T05:39:30;76990.41;;;-144.09;100.00
8890;BME280;4481;43.406;24.454;2022-11-20T05:41:56;77002.94;;;-144.09;100.00
8890;BME280;4481;43.406;24.454;2022-11-20T05:44:37;76979.97;;;-144.09;100.00
8890;BME280;4481;43.406;24.454;2022-11-20T05:47:03;76990.41;;;-144.09;100.00
8890;BME280;4481;43.406;24.454;2022-11-20T05:49:29;76990.41;;;-144.09;100.00
8890;BME280;4481;43.406;24.454;2022-11-20T05:51:56;77000.88;;;-144.09;100.00
8890;BME280;4481;43.406;24.454;2022-11-20T05:54:22;77002.94;;;-144.09;100.00
8890;BME280;4481;43.406;24.454;2022-11-20T05:56:48;77017.59;;;-144.09;100.00
8890;BME280;4481;43.406;24.454;2022-11-20T05:59:15;77042.66;;;-144.09;100.00
8890;BME280;4481;43.406;24.454;2022-11-20T06:01:41;77040.56;;;-144.09;100.00
8890;BME280;4481;43.406;24.454;2022-11-20T06:04:07;77013.41;;;-144.09;100.00
8890;BME280;4481;43.406;24.454;2022-11-20T06:06:33;77013.41;;;-144.09;100.00
8890;BME280;4481;43.406;24.454;2022-11-20T06:09:00;77040.56;;;-144.09;100.00
8890;BME280;4481;43.406;24.454;2022-11-20T06:11:27;77046.84;;;-144.09;100.00
8890;BME280;4481;43.406;24.454;2022-11-20T06:13:53;77044.75;;;-144.09;100.00
8890;BME280;4481;43.406;24.454;2022-11-20T06:16:19;77044.75;;;-144.09;100.00
8890;BME280;4481;43.406;24.454;2022-11-20T06:18:47;77051.00;;;-144.09;100.00
8890;BME280;4481;43.406;24.454;2022-11-20T06:21:15;77063.56;;;-144.09;100.00
8890;BME280;4481;43.406;24.454;2022-11-20T06:23:42;77065.66;;;-144.09;100.00
8890;BME280;4481;43.406;24.454;2022-11-20T06:26:10;77059.38;;;-144.09;100.00
8890;BME280;4481;43.406;24.454;2022-11-20T06:28:37;77042.66;;;-144.09;100.00
8890;BME280;4481;43.406;24.454;2022-11-20T06:31:04;77036.38;;;-144.09;100.00
8890;BME280;4481;43.406;24.454;2022-11-20T06:33:30;77025.94;;;-144.09;100.00
8890;BME280;4481;43.406;24.454;2022-11-20T06:35:57;77009.22;;;-144.09;100.00
8890;BME280;4481;43.406;24.454;2022-11-20T06:38:24;77000.88;;;-144.09;100.00
8890;BME280;4481;43.406;24.454;2022-11-20T06:40:50;76984.16;;;-144.09;100.00
8890;BME280;4481;43.406;24.454;2022-11-20T06:43:16;76979.97;;;-144.09;100.00
8890;BME280;4481;43.406;24.454;2022-11-20T06:45:43;76982.06;;;-144.09;100.00
8890;BME280;4481;43.406;24.454;2022-11-20T06:48:09;77025.94;;;-144.09;100.00
8890;BME280;4481;43.406;24.454;2022-11-20T06:50:36;77009.22;;;-144.09;100.00
8890;BME280;4481;43.406;24.454;2022-11-20T06:53:03;77005.03;;;-144.09;100.00
8890;BME280;4481;43.406;24.454;2022-11-20T06:55:30;77000.88;;;-144.09;100.00
8890;BME280;4481;43.406;24.454;2022-11-20T06:57:56;76998.78;;;-144.09;100.00
8890;BME280;4481;43.406;24.454;2022-11-20T07:00:23;76996.69;;;-144.09;100.00
8890;BME280;4481;43.406;24.454;2022-11-20T07:02:49;76982.06;;;-144.09;100.00
8890;BME280;4481;43.406;24.454;2022-11-20T07:05:15;76963.25;;;-144.09;100.00
8890;BME280;4481;43.406;24.454;2022-11-20T07:07:42;76969.50;;;-144.09;100.00
8890;BME280;4481;43.406;24.454;2022-11-20T07:10:09;76934.00;;;-144.09;100.00
8890;BME280;4481;43.406;24.454;2022-11-20T07:12:35;76927.72;;;-144.09;100.00
8890;BME280;4481;43.406;24.454;2022-11-20T07:15:01;76900.56;;;-144.09;100.00
8890;BME280;4481;43.406;24.454;2022-11-20T07:17:28;76894.28;;;-144.09;100.00
8890;BME280;4481;43.406;24.454;2022-11-20T07:19:55;76904.72;;;-144.09;100.00
8890;BME280;4481;43.406;24.454;2022-11-20T07:22:21;76896.38;;;-144.09;100.00
8890;BME280;4481;43.406;24.454;2022-11-20T07:24:47;76894.28;;;-144.09;100.00
8890;BME280;4481;43.406;24.454;2022-11-20T07:27:13;76888.00;;;-144.09;100.00
8890;BME280;4481;43.406;24.454;2022-11-20T07:29:39;76894.28;;;-144.09;100.00
8890;BME280;4481;43.406;24.454;2022-11-20T07:32:06;76883.84;;;-144.09;100.00
8890;BME280;4481;43.406;24.454;2022-11-20T07:34:32;76867.13;;;-144.09;100.00
8890;BME280;4481;43.406;24.454;2022-11-20T07:36:59;76860.84;;;-144.09;100.00
8890;BME280;4481;43.406;24.454;2022-11-20T07:39:25;76856.66;;;-144.09;100.00
8890;BME280;4481;43.406;24.454;2022-11-20T07:41:51;76858.75;;;-144.09;100.00
8890;BME280;4481;43.406;24.454;2022-11-20T07:44:17;76839.94;;;-144.09;100.00
8890;BME280;4481;43.406;24.454;2022-11-20T07:46:44;76812.78;;;-144.09;100.00
8890;BME280;4481;43.406;24.454;2022-11-20T07:49:10;76804.44;;;-144.09;100.00
8890;BME280;4481;43.406;24.454;2022-11-20T07:51:37;76785.63;;;-144.09;100.00
8890;BME280;4481;43.406;24.454;2022-11-20T07:54:03;76787.72;;;-144.09;100.00
8890;BME280;4481;43.406;24.454;2022-11-20T07:56:29;76777.25;;;-144.09;100.00
8890;BME280;4481;43.406;24.454;2022-11-20T07:58:55;76773.06;;;-144.09;100.00
8890;BME280;4481;43.406;24.454;2022-11-20T08:01:21;76775.16;;;-144.09;100.00
8890;BME280;4481;43.406;24.454;2022-11-20T08:03:48;76785.63;;;-144.09;100.00
8890;BME280;4481;43.406;24.454;2022-11-20T08:06:14;76802.34;;;-144.09;100.00
8890;BME280;4481;43.406;24.454;2022-11-20T08:08:41;76796.06;;;-144.09;100.00
8890;BME280;4481;43.406;24.454;2022-11-20T08:11:07;76812.78;;;-144.09;100.00
8890;BME280;4481;43.406;24.454;2022-11-20T08:13:51;76814.88;;;-144.09;100.00
8890;BME280;4481;43.406;24.454;2022-11-20T08:16:35;76802.34;;;-144.09;100.00
8890;BME280;4481;43.406;24.454;2022-11-20T08:19:02;76791.88;;;-144.09;100.00
8890;BME280;4481;43.406;24.454;2022-11-20T08:21:28;76800.25;;;-144.09;100.00
8890;BME280;4481;43.406;24.454;2022-11-20T08:23:55;76787.72;;;-144.09;100.00
8890;BME280;4481;43.406;24.454;2022-11-20T08:26:21;76773.06;;;-144.09;100.00
8890;BME280;4481;43.406;24.454;2022-11-20T08:28:47;76779.34;;;-144.09;100.00
8890;BME280;4481;43.406;24.454;2022-11-20T08:31:14;76750.09;;;-144.09;100.00
8890;BME280;4481;43.406;24.454;2022-11-20T08:33:40;76745.91;;;-144.09;100.00
8890;BME280;4481;43.406;24.454;2022-11-20T08:36:06;76735.47;;;-144.09;100.00
8890;BME280;4481;43.406;24.454;2022-11-20T08:38:32;76758.44;;;-144.09;100.00
8890;BME280;4481;43.406;24.454;2022-11-20T08:41:00;76733.38;;;-144.09;100.00
8890;BME280;4481;43.406;24.454;2022-11-20T08:44:00;76720.84;;;-144.09;100.00
8890;BME280;4481;43.406;24.454;2022-11-20T08:46:31;76743.81;;;-144.09;100.00
8890;BME280;4481;43.406;24.454;2022-11-20T08:48:58;76748.00;;;-144.09;100.00
8890;BME280;4481;43.406;24.454;2022-11-20T08:51:24;76720.84;;;-144.09;100.00
8890;BME280;4481;43.406;24.454;2022-11-20T08:53:50;76685.31;;;-144.09;100.00
8890;BME280;4481;43.406;24.454;2022-11-20T08:56:17;76699.94;;;-144.09;100.00
8890;BME280;4481;43.406;24.454;2022-11-20T08:58:44;76685.31;;;-144.09;100.00
8890;BME280;4481;43.406;24.454;2022-11-20T09:01:10;76683.22;;;-144.09;100.00
8890;BME280;4481;43.406;24.454;2022-11-20T09:03:36;76660.25;;;-144.09;100.00
8890;BME280;4481;43.406;24.454;2022-11-20T09:06:05;76666.50;;;-144.09;100.00
8890;BME280;4481;43.406;24.454;2022-11-20T09:08:32;76693.66;;;-144.09;100.00
8890;BME280;4481;43.406;24.454;2022-11-20T09:10:59;76697.84;;;-144.09;100.00
8890;BME280;4481;43.406;24.454;2022-11-20T09:13:27;76716.66;;;-144.09;100.00
8890;BME280;4481;43.406;24.454;2022-11-20T09:15:54;76727.09;;;-144.09;100.00
8890;BME280;4481;43.406;24.454;2022-11-20T09:18:20;76702.03;;;-144.09;100.00
8890;BME280;4481;43.406;24.454;2022-11-20T09:20:47;76662.31;;;-144.09;100.00
8890;BME280;4481;43.406;24.454;2022-11-20T09:23:14;76645.59;;;-144.09;100.00
8890;BME280;4481;43.406;24.454;2022-11-20T09:25:40;76628.91;;;-144.09;100.00
8890;BME280;4481;43.406;24.454;2022-11-20T09:28:06;76622.63;;;-144.09;100.00
8890;BME280;4481;43.406;24.454;2022-11-20T09:30:33;76614.25;;;-144.09;100.00
8890;BME280;4481;43.406;24.454;2022-11-20T09:32:59;76622.63;;;-144.09;100.00
8890;BME280;4481;43.406;24.454;2022-11-20T09:35:25;76595.47;;;-144.09;100.00
8890;BME280;4481;43.406;24.454;2022-11-20T09:37:51;76614.25;;;-144.09;100.00
8890;BME280;4481;43.406;24.454;2022-11-20T09:40:20;76614.25;;;-144.09;100.00
8890;BME280;4481;43.406;24.454;2022-11-20T09:42:54;76591.28;;;-144.09;100.00
8890;BME280;4481;43.406;24.454;2022-11-20T09:45:24;76597.56;;;-144.09;100.00
8890;BME280;4481;43.406;24.454;2022-11-20T09:48:16;76566.19;;;-144.09;100.00
8890;BME280;4481;43.406;24.454;2022-11-20T09:50:47;76549.50;;;-144.09;100.00
8890;BME280;4481;43.406;24.454;2022-11-20T09:53:24;76593.38;;;-144.09;100.00
8890;BME280;4481;43.406;24.454;2022-11-20T09:55:57;76580.84;;;-144.09;100.00
8890;BME280;4481;43.406;24.454;2022-11-20T09:58:29;76656.06;;;-144.09;100.00
8890;BME280;4481;43.406;24.454;2022-11-20T10:01:03;76685.31;;;-144.09;100.00
8890;BME280;4481;43.406;24.454;2022-11-20T10:03:37;76660.25;;;-144.09;100.00
8890;BME280;4481;43.406;24.454;2022-11-20T10:06:09;76635.16;;;-144.09;100.00
8890;BME280;4481;43.406;24.454;2022-11-20T10:08:41;76649.78;;;-144.09;100.00
8890;BME280;4481;43.406;24.454;2022-11-20T10:11:14;76635.16;;;-144.09;100.00
8890;BME280;4481;43.406;24.454;2022-11-20T10:13:53;76605.91;;;-144.09;100.00
8890;BME280;4481;43.406;24.454;2022-11-20T10:16:34;76580.84;;;-144.09;100.00
8890;BME280;4481;43.406;24.454;2022-11-20T10:19:16;76564.13;;;-144.09;100.00
8890;BME280;4481;43.406;24.454;2022-11-20T10:21:55;76553.66;;;-144.09;100.00
8890;BME280;4481;43.406;24.454;2022-11-20T10:24:53;76595.47;;;-144.09;100.00
8890;BME280;4481;43.406;24.454;2022-11-20T10:30:18;76720.84;;;-144.09;100.00
8890;BME280;4481;43.406;24.454;2022-11-20T10:32:49;76722.94;;;-144.09;100.00
8890;BME280;4481;43.406;24.454;2022-11-20T10:35:21;76725.00;;;-144.09;100.00
8890;BME280;4481;43.406;24.454;2022-11-20T10:37:53;76714.56;;;-144.09;100.00
8890;BME280;4481;43.406;24.454;2022-11-20T10:40:30;76689.50;;;-144.09;100.00
8890;BME280;4481;43.406;24.454;2022-11-20T10:43:01;76658.16;;;-144.09;100.00
8890;BME280;4481;43.406;24.454;2022-11-20T10:45:35;76651.88;;;-144.09;100.00
8890;BME280;4481;43.406;24.454;2022-11-20T10:48:10;76647.69;;;-144.09;100.00
8890;BME280;4481;43.406;24.454;2022-11-20T10:50:46;76639.34;;;-144.09;100.00
8890;BME280;4481;43.406;24.454;2022-11-20T10:53:20;76626.81;;;-144.09;100.00
8890;BME280;4481;43.406;24.454;2022-11-20T10:55:55;76630.97;;;-144.09;100.00
8890;BME280;4481;43.406;24.454;2022-11-20T10:58:30;76630.97;;;-144.09;100.00
8890;BME280;4481;43.406;24.454;2022-11-20T11:01:05;76664.41;;;-144.09;100.00
8890;BME280;4481;43.406;24.454;2022-11-20T11:03:31;76697.84;;;-144.09;100.00
8890;BME280;4481;43.406;24.454;2022-11-20T11:06:02;76689.50;;;-144.09;100.00
8890;BME280;4481;43.406;24.454;2022-11-20T11:08:35;76699.94;;;-144.09;100.00
8890;BME280;4481;43.406;24.454;2022-11-20T11:11:16;76679.03;;;-144.09;100.00
8890;BME280;4481;43.406;24.454;2022-11-20T11:13:44;76689.50;;;-144.09;100.00
8890;BME280;4481;43.406;24.454;2022-11-20T11:16:20;76710.38;;;-144.09;100.00
8890;BME280;4481;43.406;24.454;2022-11-20T11:18:47;76737.56;;;-144.09;100.00
8890;BME280;4481;43.406;24.454;2022-11-20T11:21:21;76716.66;;;-144.09;100.00
8890;BME280;4481;43.406;24.454;2022-11-20T11:23:57;76699.94;;;-144.09;100.00
8890;BME280;4481;43.406;24.454;2022-11-20T11:26:24;76716.66;;;-144.09;100.00
8890;BME280;4481;43.406;24.454;2022-11-20T11:28:55;76710.38;;;-144.09;100.00
8890;BME280;4481;43.406;24.454;2022-11-20T11:31:26;76699.94;;;-144.09;100.00
8890;BME280;4481;43.406;24.454;2022-11-20T11:34:03;76681.13;;;-144.09;100.00
8890;BME280;4481;43.406;24.454;2022-11-20T11:36:32;76658.16;;;-144.09;100.00
8890;BME280;4481;43.406;24.454;2022-11-20T11:38:59;76670.69;;;-144.09;100.00
8890;BME280;4481;43.406;24.454;2022-11-20T11:41:30;76676.94;;;-144.09;100.00
8890;BME280;4481;43.406;24.454;2022-11-20T11:44:02;76649.78;;;-144.09;100.00
8890;BME280;4481;43.406;24.454;2022-11-20T11:46:57;76628.91;;;-144.09;100.00
8890;BME280;4481;43.406;24.454;2022-11-20T11:49:24;76620.53;;;-144.09;100.00
8890;BME280;4481;43.406;24.454;2022-11-20T11:52:08;76633.06;;;-144.09;100.00
8890;BME280;4481;43.406;24.454;2022-11-20T11:54:43;76668.59;;;-144.09;100.00
8890;BME280;4481;43.406;24.454;2022-11-20T11:57:17;76641.44;;;-144.09;100.00
8890;BME280;4481;43.406;24.454;2022-11-20T11:59:54;76649.78;;;-144.09;100.00
8890;BME280;4481;43.406;24.454;2022-11-20T12:02:31;76626.81;;;-144.09;100.00
8890;BME280;4481;43.406;24.454;2022-11-20T12:05:06;76597.56;;;-144.09;100.00
8890;BME280;4481;43.406;24.454;2022-11-20T12:07:41;76574.56;;;-144.09;100.00
8890;BME280;4481;43.406;24.454;2022-11-20T12:10:15;76549.50;;;-144.09;100.00
8890;BME280;4481;43.406;24.454;2022-11-20T12:12:44;76574.56;;;-144.09;100.00
8890;BME280;4481;43.406;24.454;2022-11-20T12:15:19;76593.38;;;-144.09;100.00
8890;BME280;4481;43.406;24.454;2022-11-20T12:17:48;76601.72;;;-144.09;100.00
8890;BME280;4481;43.406;24.454;2022-11-20T12:20:15;76593.38;;;-144.09;100.00
8890;BME280;4481;43.406;24.454;2022-11-20T12:22:48;76578.75;;;-144.09;100.00
8890;BME280;4481;43.406;24.454;2022-11-20T12:25:20;76570.38;;;-144.09;100.00
8890;BME280;4481;43.406;24.454;2022-11-20T12:28:00;76564.13;;;-144.09;100.00
8890;BME280;4481;43.406;24.454;2022-11-20T12:30:28;76576.66;;;-144.09;100.00
8890;BME280;4481;43.406;24.454;2022-11-20T12:33:16;76628.91;;;-144.09;100.00
8890;BME280;4481;43.406;24.454;2022-11-20T12:35:56;76695.75;;;-144.09;100.00
8890;BME280;4481;43.406;24.454;2022-11-20T12:38:51;76697.84;;;-144.09;100.00
8890;BME280;4481;43.406;24.454;2022-11-20T12:41:32;76672.78;;;-144.09;100.00
8890;BME280;4481;43.406;24.454;2022-11-20T12:44:33;76731.28;;;-144.09;100.00
8890;BME280;4481;43.406;24.454;2022-11-20T12:47:30;76708.28;;;-144.09;100.00
8890;BME280;4481;43.406;24.454;2022-11-20T12:50:06;76718.75;;;-144.09;100.00
8890;BME280;4481;43.406;24.454;2022-11-20T12:52:40;76727.09;;;-144.09;100.00